Edward G. Pitka Sr Airport
PAGA : now visible

Airfield :











YOU CAN JOIN US ON...

 
LOGIN :

Register | Disclaimer

   EN    FR    IT 

 









Legend :    VFR   Marginal VFR   IFR   Intensive IFR   Very Intensive IFR
Visi :
Ceiling :
>= 8 km
>= 3000ft
5 to 8 km
1000 to 3000 ft
1500m to 5 km
500 to 1000 ft
800 to 1500m
200 to 500 ft
< 800m
< 200 ft
Symbols :   Thunderstorms  Fog  Heavy snow  Heavy precipitations  Wind > 20 kt






- Airport Elevation : 153 ft
- IATA code : GAL


PAGA - Edward G. Pitka Sr

CURRENT METAR :
  • 210556Z 35007KT 9SM -SN OVC016 M13/M15 A2905 RMK AO2 SLP840 P0000 60000 T11281150 11111 21128 51006 FZRANO

EXPIRED METARs :
  • 210456Z VRB03KT 9SM -SN OVC016 M13/M15 A2905 RMK AO2 SLP840 P0000 T11281150 FZRANO
  • 210356Z 35005KT 9SM -SN OVC018 M13/M15 A2904 RMK AO2 SLP838 P0000 T11281150 FZRANO

TAF PAGA
Valid from the 21 at 06:00 until the 22 at 06:00 UTC


210522Z 2106/2206 29003KT P6SM -SN OVC016
FM211400 29003KT 3SM -SN BR SCT007 OVC016
FM220200 27006KT 5SM -SN BR SCT007 OVC016



MET'MAP, your aeronautical weather chart ! - Copyright ORBIFLY December 2007 - Disclaimer

ORBIFLY MET'MAP TEAM :

Programming & Development : Alexandra Zaïnal
Concept & original design : Baudouin d'Aumeries
Assistance for programming : Marc-Olivier Méhu
Technical & hardware support : Manuel Goepfert

Contact : metmap@orbifly.com




SOURCES & CREDITS :

   NOAA       Earth
Advisory